Denver, Tennessee
Current Conditions -  °F | °C
As of 5:55 PM on Wednesday 26 Nov 2014 (Local Time) from KPVE Reporting Station
Overcast Overcast  
Wind Chill: 40°   Ceiling: 6500
Heat Index: 45°   Visibility: 10mi
Dew Point: 34°   Wind: 9mph
Humidity: 66%   Direction: 240°WSW
Pressure: 30.01"   Gusts: NA
Location:  36.0056°N, 87.9448°W
Report Text: KPVE 262355Z AUTO 24008KT 10SM SCT043 OVC065 07/01 A3001 RMK
Loading
Personal Weather Stations






























Interactive Weather Map New forecast layout! Learn more

10-Day Weather Forecast

Advertisements
Track Severe Weather on mobile